N973SE ENTC-ENBO

Flight info

Callsign N973SE
Flight time 1h 0m
Altitude 22000
Route AMIMO DCT GEPTU
Aircraft C414/L-SBDFGRY/S

Departure

Time 2026-04-26 07:54
Airport Tromsø Airport (ENTC)

Arrival

Time 2026-04-26 08:54
Airport Bodø Airport (ENBO)
Time Latitude Longitude Altitude Speed Heading
2026-04-26 07:31 69.68528 18.91369 21 ft 0 kts 284°
2026-04-26 07:44 69.68527 18.91383 21 ft 2 kts 284°
2026-04-26 07:44 69.68525 18.91400 21 ft 0 kts 284°
2026-04-26 07:49 69.68526 18.91397 21 ft 1 kts 276°
2026-04-26 07:49 69.68508 18.91390 21 ft 6 kts 134°
2026-04-26 07:49 69.68454 18.91495 21 ft 13 kts 174°
2026-04-26 07:50 69.68196 18.91410 26 ft 25 kts 192°
2026-04-26 07:50 69.68021 18.91292 25 ft 25 kts 193°
2026-04-26 07:50 69.67860 18.91182 26 ft 22 kts 192°
2026-04-26 07:50 69.67719 18.91088 27 ft 19 kts 193°
2026-04-26 07:51 69.67639 18.91100 28 ft 7 kts 125°
2026-04-26 07:51 69.67633 18.91155 28 ft 0 kts 103°
2026-04-26 07:52 69.67632 18.91168 28 ft 3 kts 103°
2026-04-26 07:52 69.67622 18.91312 28 ft 10 kts 102°
2026-04-26 07:52 69.67654 18.91434 28 ft 4 kts 13°
2026-04-26 07:53 69.67697 18.91464 27 ft 29 kts 13°
2026-04-26 07:53 69.68104 18.91738 25 ft 87 kts 13°
2026-04-26 07:54 69.68548 18.92054 112 ft 101 kts 13°
2026-04-26 07:54 69.69218 18.92521 456 ft 104 kts 13°
2026-04-26 07:54 69.70039 18.93080 711 ft 124 kts 13°
2026-04-26 07:54 69.70866 18.93634 1279 ft 120 kts 11°
2026-04-26 07:55 69.71662 18.94118 1789 ft 115 kts
2026-04-26 07:55 69.72439 18.94630 2196 ft 114 kts
2026-04-26 07:55 69.73203 18.95136 2625 ft 114 kts 10°
2026-04-26 07:55 69.73970 18.95646 3057 ft 113 kts 10°
2026-04-26 07:56 69.74736 18.96154 3474 ft 113 kts
2026-04-26 07:56 69.75501 18.96662 3884 ft 113 kts 10°
2026-04-26 07:56 69.76272 18.97185 4290 ft 114 kts
2026-04-26 07:56 69.77048 18.97708 4676 ft 115 kts
2026-04-26 07:57 69.77828 18.97882 5054 ft 113 kts 345°
2026-04-26 07:57 69.78485 18.96721 5439 ft 113 kts 313°
2026-04-26 07:57 69.78853 18.94699 5871 ft 116 kts 290°
2026-04-26 07:57 69.79043 18.92417 6318 ft 117 kts 287°
2026-04-26 07:58 69.79224 18.90104 6726 ft 118 kts 287°
2026-04-26 07:58 69.79402 18.87780 7125 ft 119 kts 286°
2026-04-26 07:58 69.79574 18.85436 7505 ft 120 kts 282°
2026-04-26 07:58 69.79395 18.83077 7898 ft 129 kts 239°
2026-04-26 07:59 69.78647 18.81557 8287 ft 135 kts 213°
2026-04-26 07:59 69.77844 18.80182 8686 ft 134 kts 218°
2026-04-26 07:59 69.77060 18.78713 9115 ft 134 kts 218°
2026-04-26 07:59 69.76269 18.77267 9526 ft 135 kts 217°
2026-04-26 08:00 69.75471 18.75825 9936 ft 135 kts 217°
2026-04-26 08:00 69.74672 18.74379 10321 ft 136 kts 218°
2026-04-26 08:00 69.73866 18.72927 10711 ft 137 kts 218°
2026-04-26 08:00 69.73052 18.71457 11121 ft 138 kts 218°
2026-04-26 08:01 69.72235 18.69979 11531 ft 139 kts 218°
2026-04-26 08:01 69.71414 18.68499 11943 ft 140 kts 218°
2026-04-26 08:01 69.70589 18.67016 12323 ft 141 kts 218°
2026-04-26 08:01 69.69753 18.65509 12711 ft 142 kts 219°
2026-04-26 08:02 69.68915 18.63998 13111 ft 142 kts 219°
2026-04-26 08:02 69.68082 18.62503 13475 ft 143 kts 219°
2026-04-26 08:02 69.67231 18.60982 13834 ft 145 kts 219°
2026-04-26 08:02 69.66375 18.59442 14188 ft 146 kts 219°
2026-04-26 08:03 69.65493 18.57857 14568 ft 148 kts 218°
2026-04-26 08:03 69.64616 18.56286 14932 ft 150 kts 218°
2026-04-26 08:03 69.63721 18.54690 15279 ft 152 kts 218°
2026-04-26 08:03 69.62833 18.53100 15600 ft 153 kts 218°
2026-04-26 08:04 69.61908 18.51448 15964 ft 155 kts 218°
2026-04-26 08:04 69.60982 18.49799 16318 ft 157 kts 217°
2026-04-26 08:04 69.60051 18.48142 16681 ft 158 kts 217°
2026-04-26 08:04 69.59107 18.46461 17046 ft 160 kts 217°
2026-04-26 08:05 69.58155 18.44767 17391 ft 162 kts 216°
2026-04-26 08:05 69.57192 18.43060 17751 ft 164 kts 216°
2026-04-26 08:05 69.56217 18.41331 18096 ft 165 kts 216°
2026-04-26 08:05 69.55235 18.39590 18415 ft 166 kts 216°
2026-04-26 08:06 69.54246 18.37841 18692 ft 168 kts 216°
2026-04-26 08:06 69.53254 18.36096 19012 ft 168 kts 215°
2026-04-26 08:06 69.52247 18.34384 19331 ft 169 kts 215°
2026-04-26 08:06 69.51247 18.32633 19654 ft 169 kts 216°
2026-04-26 08:07 69.50243 18.30845 19987 ft 170 kts 216°
2026-04-26 08:07 69.49252 18.29076 20314 ft 171 kts 216°
2026-04-26 08:07 69.48240 18.27277 20649 ft 172 kts 216°
2026-04-26 08:07 69.47219 18.25476 20986 ft 173 kts 215°
2026-04-26 08:08 69.46195 18.23672 21334 ft 174 kts 215°
2026-04-26 08:08 69.45163 18.21859 21667 ft 175 kts 215°
2026-04-26 08:08 69.44112 18.20011 21862 ft 185 kts 215°
2026-04-26 08:08 69.42973 18.18003 21880 ft 201 kts 214°
2026-04-26 08:09 69.41747 18.15846 21892 ft 213 kts 214°
2026-04-26 08:09 69.40453 18.13582 21893 ft 223 kts 214°
2026-04-26 08:09 69.39111 18.11246 21890 ft 229 kts 214°
2026-04-26 08:09 69.37734 18.08855 21896 ft 234 kts 214°
2026-04-26 08:10 69.36335 18.06432 21893 ft 237 kts 214°
2026-04-26 08:10 69.34919 18.03981 21896 ft 240 kts 214°
2026-04-26 08:10 69.33491 18.01512 21895 ft 241 kts 214°
2026-04-26 08:10 69.32056 17.99035 21892 ft 242 kts 214°
2026-04-26 08:11 69.30616 17.96553 21904 ft 243 kts 214°
2026-04-26 08:11 69.29171 17.94065 21900 ft 243 kts 213°
2026-04-26 08:11 69.27723 17.91576 21899 ft 244 kts 213°
2026-04-26 08:11 69.26274 17.89087 21905 ft 244 kts 214°
2026-04-26 08:12 69.24820 17.86595 21904 ft 245 kts 213°
2026-04-26 08:12 69.23366 17.84108 21904 ft 245 kts 213°
2026-04-26 08:12 69.21911 17.81623 21900 ft 244 kts 213°
2026-04-26 08:12 69.20456 17.79142 21907 ft 245 kts 213°
2026-04-26 08:13 69.19000 17.76663 21908 ft 244 kts 213°
2026-04-26 08:13 69.17565 17.74224 21907 ft 244 kts 213°
2026-04-26 08:13 69.16112 17.71756 21907 ft 244 kts 213°
2026-04-26 08:13 69.14657 17.69292 21906 ft 244 kts 213°
2026-04-26 08:14 69.13203 17.66833 21913 ft 244 kts 214°
2026-04-26 08:14 69.11750 17.64377 21908 ft 244 kts 213°
2026-04-26 08:14 69.10296 17.61926 21910 ft 244 kts 214°
2026-04-26 08:14 69.08839 17.59473 21912 ft 244 kts 214°
2026-04-26 08:15 69.07383 17.57024 21915 ft 244 kts 213°
2026-04-26 08:15 69.05927 17.54579 21914 ft 244 kts 214°
2026-04-26 08:15 69.04472 17.52139 21912 ft 244 kts 213°
2026-04-26 08:15 69.03016 17.49704 21916 ft 244 kts 214°
2026-04-26 08:16 69.01560 17.47271 21915 ft 244 kts 214°
2026-04-26 08:16 69.00100 17.44837 21917 ft 244 kts 214°
2026-04-26 08:16 68.98643 17.42411 21916 ft 244 kts 213°
2026-04-26 08:16 68.97185 17.39985 21921 ft 244 kts 214°
2026-04-26 08:17 68.95727 17.37565 21922 ft 244 kts 214°
2026-04-26 08:17 68.94267 17.35144 21920 ft 244 kts 214°
2026-04-26 08:17 68.92809 17.32729 21921 ft 244 kts 213°
2026-04-26 08:17 68.91349 17.30316 21922 ft 245 kts 214°
2026-04-26 08:18 68.89887 17.27901 21915 ft 245 kts 214°
2026-04-26 08:18 68.88423 17.25483 21921 ft 244 kts 214°
2026-04-26 08:18 68.86964 17.23078 21927 ft 244 kts 214°
2026-04-26 08:18 68.85500 17.20673 21927 ft 245 kts 214°
2026-04-26 08:19 68.84036 17.18275 21922 ft 245 kts 214°
2026-04-26 08:19 68.82570 17.15879 21921 ft 244 kts 214°
2026-04-26 08:19 68.81104 17.13485 21922 ft 244 kts 214°
2026-04-26 08:19 68.79643 17.11100 21927 ft 244 kts 214°
2026-04-26 08:20 68.78177 17.08712 21925 ft 244 kts 214°
2026-04-26 08:20 68.76713 17.06332 21927 ft 244 kts 213°
2026-04-26 08:20 68.75274 17.03998 21924 ft 244 kts 214°
2026-04-26 08:20 68.73788 17.01589 21929 ft 243 kts 214°
2026-04-26 08:21 68.72331 16.99226 21929 ft 244 kts 214°
2026-04-26 08:21 68.70869 16.96860 21936 ft 244 kts 214°
2026-04-26 08:21 68.69420 16.94518 21932 ft 244 kts 214°
2026-04-26 08:21 68.67953 16.92155 21937 ft 244 kts 214°
2026-04-26 08:22 68.66484 16.89790 21937 ft 245 kts 214°
2026-04-26 08:22 68.64993 16.87394 21937 ft 245 kts 214°
2026-04-26 08:22 68.63522 16.85033 21941 ft 245 kts 214°
2026-04-26 08:22 68.62045 16.82664 21937 ft 245 kts 214°
2026-04-26 08:23 68.60573 16.80309 21938 ft 245 kts 214°
2026-04-26 08:23 68.59116 16.77983 21943 ft 245 kts 214°
2026-04-26 08:23 68.57625 16.75604 21940 ft 245 kts 214°
2026-04-26 08:23 68.56173 16.73292 21943 ft 245 kts 214°
2026-04-26 08:24 68.54704 16.70956 21939 ft 244 kts 214°
2026-04-26 08:24 68.53235 16.68625 21943 ft 244 kts 214°
2026-04-26 08:24 68.51748 16.66267 21945 ft 244 kts 214°
2026-04-26 08:24 68.50282 16.63948 21942 ft 243 kts 214°
2026-04-26 08:25 68.48818 16.61634 21946 ft 243 kts 214°
2026-04-26 08:25 68.47352 16.59321 21941 ft 243 kts 214°
2026-04-26 08:25 68.45887 16.57012 21938 ft 243 kts 214°
2026-04-26 08:25 68.44426 16.54712 21943 ft 243 kts 214°
2026-04-26 08:26 68.42982 16.52443 21942 ft 243 kts 214°
2026-04-26 08:26 68.41514 16.50141 21941 ft 244 kts 214°
2026-04-26 08:26 68.40045 16.47838 21948 ft 244 kts 215°
2026-04-26 08:26 68.38569 16.45529 21946 ft 245 kts 215°
2026-04-26 08:27 68.37092 16.43222 21940 ft 246 kts 215°
2026-04-26 08:27 68.35610 16.40894 21935 ft 246 kts 215°
2026-04-26 08:27 68.34128 16.38565 21802 ft 247 kts 215°
2026-04-26 08:27 68.32640 16.36249 21595 ft 246 kts 215°
2026-04-26 08:28 68.31157 16.33956 21407 ft 245 kts 214°
2026-04-26 08:28 68.29679 16.31676 21137 ft 244 kts 214°
2026-04-26 08:28 68.28212 16.29417 20921 ft 242 kts 214°
2026-04-26 08:28 68.26751 16.27163 20691 ft 241 kts 214°
2026-04-26 08:29 68.25299 16.24927 20478 ft 240 kts 214°
2026-04-26 08:29 68.23856 16.22707 20273 ft 239 kts 214°
2026-04-26 08:29 68.22417 16.20496 20083 ft 238 kts 214°
2026-04-26 08:29 68.20980 16.18292 19901 ft 237 kts 214°
2026-04-26 08:30 68.19568 16.16124 19728 ft 236 kts 214°
2026-04-26 08:30 68.18143 16.13942 19565 ft 235 kts 214°
2026-04-26 08:30 68.16727 16.11777 19408 ft 234 kts 214°
2026-04-26 08:30 68.15314 16.09619 19251 ft 233 kts 214°
2026-04-26 08:31 68.13902 16.07469 19102 ft 233 kts 214°
2026-04-26 08:31 68.12482 16.05305 18958 ft 232 kts 213°
2026-04-26 08:31 68.11082 16.03173 18825 ft 231 kts 213°
2026-04-26 08:31 68.09686 16.01053 18688 ft 230 kts 213°
2026-04-26 08:32 68.08293 15.98939 18539 ft 230 kts 213°
2026-04-26 08:32 68.06906 15.96839 18423 ft 229 kts 213°
2026-04-26 08:32 68.05539 15.94774 18283 ft 228 kts 213°
2026-04-26 08:32 68.04144 15.92667 18146 ft 227 kts 213°
2026-04-26 08:33 68.02787 15.90623 17989 ft 226 kts 213°
2026-04-26 08:33 68.01402 15.88537 17829 ft 226 kts 213°
2026-04-26 08:33 68.00037 15.86485 17613 ft 224 kts 213°
2026-04-26 08:33 67.98679 15.84445 17355 ft 224 kts 213°
2026-04-26 08:34 67.97327 15.82419 17103 ft 222 kts 213°
2026-04-26 08:34 67.95983 15.80404 16869 ft 221 kts 213°
2026-04-26 08:34 67.94660 15.78425 16644 ft 220 kts 213°
2026-04-26 08:34 67.93326 15.76430 16370 ft 219 kts 213°
2026-04-26 08:35 67.92000 15.74453 16138 ft 218 kts 213°
2026-04-26 08:35 67.90677 15.72486 15906 ft 217 kts 214°
2026-04-26 08:35 67.89365 15.70532 15683 ft 216 kts 214°
2026-04-26 08:35 67.88052 15.68578 15471 ft 215 kts 214°
2026-04-26 08:36 67.87169 15.67267 15351 ft 215 kts 213°
2026-04-26 08:36 67.85884 15.65364 15161 ft 214 kts 214°
2026-04-26 08:36 67.84586 15.63444 14976 ft 213 kts 214°
2026-04-26 08:36 67.83292 15.61530 14770 ft 212 kts 214°
2026-04-26 08:37 67.82007 15.59631 14581 ft 212 kts 214°
2026-04-26 08:37 67.80721 15.57732 14410 ft 211 kts 213°
2026-04-26 08:37 67.79444 15.55853 14200 ft 210 kts 214°
2026-04-26 08:37 67.78172 15.53982 13933 ft 208 kts 214°
2026-04-26 08:38 67.76906 15.52120 13663 ft 207 kts 214°
2026-04-26 08:38 67.75650 15.50275 13404 ft 206 kts 214°
2026-04-26 08:38 67.74394 15.48434 13133 ft 206 kts 214°
2026-04-26 08:38 67.73142 15.46600 12872 ft 206 kts 214°
2026-04-26 08:39 67.71891 15.44769 12594 ft 205 kts 214°
2026-04-26 08:39 67.70643 15.42945 12318 ft 205 kts 214°
2026-04-26 08:39 67.69399 15.41133 12079 ft 204 kts 213°
2026-04-26 08:39 67.68157 15.39324 11854 ft 204 kts 213°
2026-04-26 08:40 67.66917 15.37517 11610 ft 203 kts 214°
2026-04-26 08:40 67.65680 15.35717 11372 ft 203 kts 214°
2026-04-26 08:40 67.64444 15.33923 11144 ft 202 kts 214°
2026-04-26 08:40 67.63211 15.32138 10917 ft 202 kts 214°
2026-04-26 08:41 67.61984 15.30365 10662 ft 201 kts 214°
2026-04-26 08:41 67.60757 15.28588 10446 ft 201 kts 214°
2026-04-26 08:41 67.59534 15.26825 10235 ft 200 kts 214°
2026-04-26 08:41 67.58313 15.25064 9976 ft 201 kts 214°
2026-04-26 08:42 67.57087 15.23294 9719 ft 202 kts 213°
2026-04-26 08:42 67.55853 15.21517 9433 ft 202 kts 213°
2026-04-26 08:42 67.54623 15.19747 9143 ft 201 kts 213°
2026-04-26 08:42 67.53399 15.17985 8863 ft 200 kts 214°
2026-04-26 08:43 67.52176 15.16225 8597 ft 200 kts 213°
2026-04-26 08:43 67.50955 15.14478 8307 ft 200 kts 213°
2026-04-26 08:43 67.49738 15.12740 8030 ft 198 kts 214°
2026-04-26 08:43 67.48536 15.11020 7780 ft 197 kts 213°
2026-04-26 08:44 67.47329 15.09306 7505 ft 197 kts 213°
2026-04-26 08:44 67.46129 15.07602 7244 ft 196 kts 213°
2026-04-26 08:44 67.44939 15.05904 7047 ft 195 kts 213°
2026-04-26 08:44 67.43759 15.04222 6812 ft 192 kts 213°
2026-04-26 08:45 67.42590 15.02560 6579 ft 190 kts 213°
2026-04-26 08:45 67.41436 15.00935 6358 ft 187 kts 212°
2026-04-26 08:45 67.40300 14.99329 6081 ft 185 kts 213°
2026-04-26 08:45 67.39174 14.97725 5797 ft 184 kts 213°
2026-04-26 08:46 67.38023 14.96254 5553 ft 187 kts 203°
2026-04-26 08:46 67.36723 14.95797 5348 ft 191 kts 184°
2026-04-26 08:46 67.35394 14.95598 5156 ft 192 kts 189°
2026-04-26 08:46 67.34059 14.95240 4933 ft 193 kts 190°
2026-04-26 08:47 67.32727 14.94889 4701 ft 192 kts 189°
2026-04-26 08:47 67.31408 14.94562 4465 ft 189 kts 190°
2026-04-26 08:47 67.30110 14.94240 4249 ft 185 kts 193°
2026-04-26 08:47 67.28946 14.93070 4047 ft 177 kts 222°
2026-04-26 08:48 67.28162 14.90743 3838 ft 169 kts 249°
2026-04-26 08:48 67.27853 14.87891 3632 ft 163 kts 271°
2026-04-26 08:48 67.27834 14.84985 3418 ft 162 kts 273°
2026-04-26 08:48 67.27800 14.82071 3212 ft 162 kts 273°
2026-04-26 08:49 67.27752 14.79188 3085 ft 157 kts 272°
2026-04-26 08:49 67.27699 14.76406 3041 ft 152 kts 272°
2026-04-26 08:49 67.27655 14.73707 3011 ft 148 kts 273°
2026-04-26 08:49 67.27625 14.71069 3007 ft 145 kts 273°
2026-04-26 08:50 67.27596 14.68428 2733 ft 147 kts 274°
2026-04-26 08:50 67.27570 14.65826 2518 ft 143 kts 274°
2026-04-26 08:50 67.27538 14.63430 2297 ft 127 kts 274°
2026-04-26 08:50 67.27511 14.61253 2079 ft 117 kts 274°
2026-04-26 08:51 67.27469 14.57440 1747 ft 97 kts 275°
2026-04-26 08:51 67.27446 14.55760 1578 ft 91 kts 276°
2026-04-26 08:51 67.27430 14.54171 1423 ft 88 kts 276°
2026-04-26 08:52 67.27423 14.52589 1285 ft 87 kts 277°
2026-04-26 08:52 67.27414 14.51002 1121 ft 89 kts 276°
2026-04-26 08:52 67.27395 14.49387 968 ft 90 kts 276°
2026-04-26 08:52 67.27369 14.47751 806 ft 92 kts 275°
2026-04-26 08:53 67.27344 14.46103 670 ft 92 kts 275°
2026-04-26 08:53 67.27326 14.44426 518 ft 95 kts 276°
2026-04-26 08:53 67.27303 14.42709 320 ft 94 kts 276°
2026-04-26 08:53 67.27274 14.41077 222 ft 90 kts 273°
2026-04-26 08:54 67.27165 14.39441 57 ft 93 kts 266°
2026-04-26 08:54 67.27055 14.38053 41 ft 63 kts 267°
2026-04-26 08:54 67.26978 14.37093 36 ft 48 kts 254°
2026-04-26 08:54 67.26903 14.36346 34 ft 39 kts 259°
2026-04-26 08:55 67.26912 14.35963 32 ft 16 kts 338°
2026-04-26 08:55 67.26996 14.35908 34 ft 10 kts 346°
2026-04-26 08:55 67.27053 14.35871 34 ft 7 kts 346°
2026-04-26 08:55 67.27091 14.35848 34 ft 4 kts 346°
2026-04-26 08:56 67.27107 14.35836 34 ft 0 kts 345°
2026-04-26 08:56 67.27108 14.35836 34 ft 0 kts 345°
2026-04-26 08:57 67.27112 14.35833 34 ft 3 kts 345°
2026-04-26 08:57 67.27143 14.35831 34 ft 5 kts 39°
2026-04-26 08:57 67.27156 14.35896 34 ft 3 kts 67°
2026-04-26 08:57 67.27155 14.35947 34 ft 5 kts 146°
2026-04-26 08:58 67.27122 14.35957 34 ft 0 kts 181°